Time;durP1;ratioP1;P1;durP2;ratioP2;P2;SDS_P1;SDS_P2;PMS_P1;PMS_P2;Temp;Humidity;BMP_temperature;BMP_pressure;BME280_temperature;BME280_humidity;BME280_pressure;Samples;Min_cycle;Max_cycle;Signal;HPM_P1;HPM_P2
2022/01/23 00:00:41;;;;;;;6.50;3.03;;;-1.40;73.60;;;-1.88;54.37;95287.03;5037049;28;20486;-57
2022/01/23 00:03:16;;;;;;;2.90;2.67;;;-1.40;73.40;;;-1.87;55.03;95287.88;5042965;28;20455;-57
2022/01/23 00:05:44;;;;;;;3.50;2.90;;;-1.40;73.30;;;-1.86;55.24;95290.41;5041752;28;20504;-57
2022/01/23 00:08:13;;;;;;;5.90;3.30;;;-1.40;73.40;;;-1.85;54.59;95294.66;5036902;28;20456;-57
2022/01/23 00:10:40;;;;;;;3.93;3.43;;;-1.40;73.80;;;-1.83;55.10;95298.03;5038323;28;20475;-57
2022/01/23 00:13:12;;;;;;;3.43;2.90;;;-1.40;74.00;;;-1.81;55.07;95292.81;5035463;28;20466;-57
2022/01/23 00:18:25;;;;;;;4.10;2.70;;;-1.40;73.90;;;-1.84;54.87;95295.50;5038031;28;20458;-57
2022/01/23 00:20:52;;;;;;;2.60;2.50;;;-1.40;74.00;;;-1.83;54.99;95294.59;5039222;28;20495;-57
2022/01/23 00:23:33;;;;;;;6.40;3.00;;;-1.40;73.80;;;-1.83;55.04;95299.75;5038568;28;20459;-56
2022/01/23 00:31:32;;;;;;;3.67;2.97;;;-1.40;73.90;;;-1.82;54.85;95304.84;5034485;28;20607;-58
2022/01/23 00:34:00;;;;;;;3.03;2.70;;;-1.40;74.00;;;-1.79;55.50;95315.97;5034930;28;20501;-58
2022/01/23 00:36:29;;;;;;;3.90;3.00;;;-1.40;74.20;;;-1.76;55.76;95321.03;5037122;28;20873;-56
2022/01/23 00:38:57;;;;;;;3.07;2.87;;;-1.30;74.40;;;-1.76;55.60;95321.03;5036482;28;20449;-57
2022/01/23 00:41:24;;;;;;;2.90;2.70;;;-1.30;74.20;;;-1.76;55.02;95321.03;5038041;28;20471;-57
2022/01/23 00:43:53;;;;;;;3.70;3.40;;;-1.30;74.30;;;-1.75;54.93;95318.38;5036195;28;20461;-58
2022/01/23 00:46:30;;;;;;;3.40;3.10;;;-1.30;74.20;;;-1.73;55.78;95323.50;5039365;28;20480;-56
2022/01/23 00:51:46;;;;;;;3.50;3.13;;;-1.30;74.50;;;-1.74;55.07;95311.47;5031786;28;20472;-58
2022/01/23 00:54:13;;;;;;;5.53;2.53;;;-1.30;74.70;;;-1.73;54.97;95326.06;5039250;28;20451;-57
2022/01/23 00:56:40;;;;;;;3.93;3.57;;;-1.30;74.80;;;-1.74;55.36;95329.53;5034783;28;20547;-58
2022/01/23 00:59:08;;;;;;;2.53;2.43;;;-1.30;75.00;;;-1.76;55.92;95321.84;5039198;28;20456;-57
2022/01/23 01:01:35;;;;;;;2.73;2.53;;;-1.40;74.60;;;-1.76;55.60;95329.59;5039376;28;20480;-56
2022/01/23 01:04:02;;;;;;;4.00;3.17;;;-1.30;74.60;;;-1.76;55.91;95331.34;5034251;28;20506;-55
2022/01/23 01:06:30;;;;;;;8.87;4.37;;;-1.30;74.90;;;-1.77;55.56;95329.63;5039519;28;20482;-58
2022/01/23 01:09:02;;;;;;;6.77;4.67;;;-1.30;74.70;;;-1.81;54.96;95323.75;5040554;28;20447;-58
2022/01/23 01:14:29;;;;;;;6.27;4.30;;;-1.40;74.60;;;-1.87;56.10;95324.81;5035072;28;20451;-57
2022/01/23 01:17:04;;;;;;;4.13;3.73;;;-1.40;74.90;;;-1.87;55.88;95322.22;5038016;28;20522;-58
2022/01/23 01:30:37;;;;;;;3.37;2.77;;;-1.40;75.60;;;-1.79;55.92;95326.28;5038113;28;20522;-57
2022/01/23 01:33:15;;;;;;;2.90;2.53;;;-1.40;75.50;;;-1.76;55.65;95321.03;5044796;28;20447;-57
2022/01/23 01:35:49;;;;;;;4.73;4.20;;;-1.30;75.60;;;-1.75;55.34;95327.84;5042185;28;20621;-57
2022/01/23 01:38:16;;;;;;;6.87;3.70;;;-1.30;75.00;;;-1.76;55.47;95327.00;5033622;28;20457;-57
2022/01/23 01:40:45;;;;;;;6.50;3.30;;;-1.40;75.00;;;-1.79;54.87;95324.53;5044664;28;20484;-57
2022/01/23 01:43:12;;;;;;;5.23;3.13;;;-1.30;74.60;;;-1.79;55.17;95326.28;5042183;28;20476;-57
2022/01/23 01:45:41;;;;;;;3.43;3.10;;;-1.40;74.90;;;-1.80;55.10;95317.69;5039070;28;20483;-56
2022/01/23 01:48:08;;;;;;;4.47;3.50;;;-1.40;74.60;;;-1.85;55.25;95314.44;5040643;28;20483;-57
2022/01/23 01:50:37;;;;;;;4.47;3.53;;;-1.40;74.40;;;-1.89;54.84;95311.13;5038806;28;20469;-56
2022/01/23 01:53:04;;;;;;;3.93;3.50;;;-1.50;74.20;;;-1.93;56.03;95317.28;5037373;28;20479;-57
2022/01/23 01:55:39;;;;;;;4.80;3.53;;;-1.50;74.80;;;-1.96;54.91;95309.66;5042334;28;20482;-57
2022/01/23 01:58:22;;;;;;;3.33;2.90;;;-1.50;74.80;;;-1.98;55.88;95314.88;5038332;28;20873;-57
2022/01/23 02:00:55;;;;;;;3.27;3.07;;;-1.50;75.00;;;-1.97;55.58;95318.28;5037564;28;20463;-58
2022/01/23 02:08:49;;;;;;;3.60;3.30;;;-1.50;75.00;;;-2.06;55.06;95316.00;5039490;28;20494;-57
2022/01/23 02:11:21;;;;;;;3.50;3.20;;;-1.60;74.40;;;-2.10;55.86;95317.03;5039629;28;20504;-57
2022/01/23 02:13:54;;;;;;;4.23;3.83;;;-1.70;74.60;;;-2.14;55.72;95321.44;5039908;28;20455;-57
2022/01/23 02:16:55;;;;;;;4.17;3.77;;;-1.70;74.60;;;-2.18;56.10;95310.41;5041979;28;20525;-57
2022/01/23 02:22:41;;;;;;;3.40;3.10;;;-1.80;75.60;;;-2.22;55.39;95320.84;5037078;28;20483;-57
2022/01/23 02:25:39;;;;;;;5.23;3.40;;;-1.80;75.30;;;-2.25;56.55;95315.81;5033774;28;20444;-57
2022/01/23 02:53:17;;;;;;;4.67;4.23;;;-1.90;74.50;;;-2.48;55.42;95348.31;5035955;28;20436;-57
2022/01/23 02:55:48;;;;;;;4.73;3.37;;;-2.00;73.90;;;-2.55;56.11;95345.09;5035245;28;20489;-57
2022/01/23 02:58:17;;;;;;;5.80;3.70;;;-2.10;74.20;;;-2.57;55.33;95349.47;5039829;28;20444;-57
2022/01/23 03:00:51;;;;;;;4.40;3.70;;;-2.10;74.90;;;-2.58;55.16;95350.34;5036522;28;20473;-57
2022/01/23 03:03:23;;;;;;;4.33;3.70;;;-2.10;74.90;;;-2.57;56.50;95354.63;5039514;28;20501;-55
2022/01/23 03:06:11;;;;;;;4.63;4.00;;;-2.10;75.30;;;-2.57;55.94;95348.59;5040128;28;20464;-57
2022/01/23 03:09:06;;;;;;;7.63;4.23;;;-2.10;74.90;;;-2.56;55.93;95348.56;5037888;28;20476;-57
2022/01/23 03:11:56;;;;;;;4.30;3.50;;;-2.10;74.80;;;-2.56;56.09;95355.44;5040576;28;20570;-57
2022/01/23 03:14:36;;;;;;;4.27;3.87;;;-2.10;74.70;;;-2.55;55.84;95350.25;5034883;28;20458;-57
2022/01/23 03:25:55;;;;;;;3.93;3.60;;;-2.10;74.20;;;-2.58;54.96;95349.50;5036386;28;20621;-56
2022/01/23 03:28:20;;;;;;;5.27;4.50;;;-2.10;74.20;;;-2.58;55.34;95363.22;5035920;28;20429;-58
2022/01/23 03:31:06;;;;;;;5.03;3.33;;;-2.10;74.30;;;-2.59;55.40;95358.94;5037884;28;20478;-56
2022/01/23 03:33:33;;;;;;;5.80;4.57;;;-2.10;74.50;;;-2.61;55.65;95363.31;5039986;28;20441;-57
2022/01/23 03:36:00;;;;;;;5.13;4.20;;;-2.10;74.20;;;-2.60;55.88;95369.28;5037206;28;20480;-57
2022/01/23 03:38:28;;;;;;;5.87;4.40;;;-2.10;74.20;;;-2.62;55.38;95361.63;5039159;28;20448;-58
2022/01/23 03:40:55;;;;;;;5.80;4.57;;;-2.10;74.20;;;-2.62;55.86;95360.78;5039582;28;20483;-58
2022/01/23 03:43:28;;;;;;;5.20;3.73;;;-2.20;73.90;;;-2.62;55.98;95355.63;5042895;28;20873;-57
2022/01/23 03:46:09;;;;;;;5.57;4.00;;;-2.10;74.10;;;-2.68;54.48;95360.97;5037081;28;20476;-57
2022/01/23 03:51:21;;;;;;;5.07;4.00;;;-2.30;73.10;;;-2.84;55.33;95364.03;5037289;28;20471;-61
2022/01/23 03:53:49;;;;;;;4.20;3.30;;;-2.40;72.90;;;-2.90;54.51;95367.66;5037464;28;20449;-57
2022/01/23 03:56:18;;;;;;;6.33;4.90;;;-2.40;73.00;;;-2.95;55.33;95363.53;5041149;28;20502;-58
2022/01/23 03:58:47;;;;;;;6.57;4.17;;;-2.50;73.20;;;-2.98;54.68;95369.59;5042427;28;20459;-58
2022/01/23 04:01:14;;;;;;;5.80;4.00;;;-2.50;73.50;;;-3.01;55.68;95372.25;5032062;28;20465;-56
2022/01/23 04:03:41;;;;;;;4.80;4.40;;;-2.60;73.20;;;-3.03;55.48;95380.94;5035873;28;20448;-57
2022/01/23 04:06:09;;;;;;;6.83;4.20;;;-2.60;73.60;;;-3.04;54.54;95379.22;5037357;28;20988;-56
2022/01/23 04:08:36;;;;;;;7.47;3.80;;;-2.60;73.80;;;-3.05;55.44;95380.97;5039193;28;20460;-56
2022/01/23 04:11:05;;;;;;;9.80;4.80;;;-2.60;73.70;;;-3.03;55.09;95380.94;5037028;28;20853;-58
2022/01/23 04:13:41;;;;;;;5.93;3.90;;;-2.60;74.50;;;-2.99;55.43;95385.94;5037931;28;20488;-56
2022/01/23 04:16:28;;;;;;;4.53;4.00;;;-2.50;75.00;;;-2.95;55.52;95384.94;5034145;28;20471;-57
2022/01/23 04:19:16;;;;;;;5.23;3.63;;;-2.50;74.20;;;-2.97;54.98;95376.44;5036901;28;20444;-57
2022/01/23 04:33:00;;;;;;;6.70;4.20;;;-2.30;74.50;;;-2.73;55.86;95398.03;5041164;28;21087;-57
2022/01/23 04:45:09;;;;;;;4.30;3.90;;;-2.30;74.30;;;-2.68;56.00;95397.03;5037995;28;20474;-57
2022/01/23 05:00:49;;;;;;;5.00;4.50;;;-2.00;74.80;;;-2.41;54.45;95409.03;5035018;28;20847;-56
2022/01/23 05:06:05;;;;;;;6.60;3.57;;;-1.90;73.60;;;-2.36;54.25;95417.47;5036235;28;20463;-58
2022/01/23 05:08:35;;;;;;;4.90;3.77;;;-1.90;73.00;;;-2.35;54.09;95420.91;5033830;28;20611;-56
2022/01/23 05:11:02;;;;;;;5.67;4.20;;;-1.90;72.30;;;-2.38;53.90;95426.97;5032624;28;20468;-57
2022/01/23 05:13:30;;;;;;;3.60;3.30;;;-1.90;72.40;;;-2.37;53.48;95427.81;5035415;28;20523;-58
2022/01/23 05:15:57;;;;;;;4.37;3.53;;;-1.90;72.30;;;-2.41;53.72;95421.09;5035414;28;20599;-57
2022/01/23 05:18:25;;;;;;;4.53;3.50;;;-2.00;71.20;;;-2.42;53.84;95427.94;5036758;28;20509;-58
2022/01/23 05:21:01;;;;;;;4.13;3.70;;;-2.00;71.90;;;-2.40;53.61;95431.34;5038601;28;20527;-57
2022/01/23 05:23:30;;;;;;;5.47;3.80;;;-2.00;71.80;;;-2.44;53.94;95422.03;5035888;28;20961;-57
2022/01/23 05:25:58;;;;;;;3.87;3.60;;;-2.00;71.20;;;-2.43;53.57;95433.16;5034830;28;20500;-58
2022/01/23 05:28:25;;;;;;;4.60;2.80;;;-2.00;71.30;;;-2.43;53.56;95436.59;5036334;28;20448;-57
2022/01/23 05:30:52;;;;;;;4.60;3.63;;;-2.00;71.70;;;-2.42;53.48;95437.44;5036177;28;20468;-57
2022/01/23 05:33:20;;;;;;;4.03;3.20;;;-2.00;71.50;;;-2.42;53.71;95429.69;5038314;28;21016;-57
2022/01/23 05:35:47;;;;;;;3.40;3.10;;;-2.00;71.40;;;-2.40;53.92;95430.47;5039647;28;20822;-57
2022/01/23 05:38:14;;;;;;;3.30;2.97;;;-2.00;71.20;;;-2.39;54.17;95427.03;5036192;28;20499;-58
2022/01/23 05:40:43;;;;;;;4.57;3.63;;;-2.00;71.30;;;-2.38;53.66;95432.13;5039278;28;21059;-57
2022/01/23 05:43:11;;;;;;;3.97;3.17;;;-2.00;71.40;;;-2.39;53.19;95430.44;5037927;28;20807;-58
2022/01/23 05:45:41;;;;;;;3.67;3.33;;;-2.00;71.30;;;-2.40;53.19;95439.06;5039158;28;20479;-57
2022/01/23 05:48:09;;;;;;;6.93;4.03;;;-2.00;71.20;;;-2.40;53.64;95443.34;5035717;28;20444;-58
2022/01/23 05:50:36;;;;;;;5.83;3.67;;;-2.00;71.30;;;-2.39;53.82;95447.63;5034182;28;21040;-57
2022/01/23 05:53:04;;;;;;;5.83;3.90;;;-1.90;71.80;;;-2.38;54.33;95452.75;5036616;28;20870;-57
2022/01/23 05:55:31;;;;;;;5.20;3.63;;;-1.90;72.10;;;-2.36;53.86;95444.97;5039638;28;21071;-57
2022/01/23 05:57:59;;;;;;;6.53;4.43;;;-1.90;72.00;;;-2.34;53.77;95450.91;5037744;28;20496;-58
2022/01/23 06:00:27;;;;;;;6.00;4.23;;;-1.90;71.30;;;-2.33;53.85;95452.59;5044203;28;20516;-58
2022/01/23 06:02:54;;;;;;;6.93;5.17;;;-1.90;71.30;;;-2.31;53.25;95453.38;5043953;28;20826;-57
2022/01/23 06:05:21;;;;;;;7.33;4.70;;;-1.90;71.30;;;-2.31;53.41;95453.38;5039656;28;20855;-57
2022/01/23 06:07:50;;;;;;;5.17;4.63;;;-1.90;71.30;;;-2.30;53.84;95455.06;5040754;28;20470;-57
2022/01/23 06:10:22;;;;;;;8.60;4.40;;;-1.90;71.10;;;-2.29;53.19;95458.47;5041858;28;20482;-57
2022/01/23 06:12:50;;;;;;;6.90;3.97;;;-1.90;70.90;;;-2.29;53.61;95467.06;5039161;28;20459;-58
2022/01/23 06:15:19;;;;;;;6.60;4.50;;;-1.80;71.40;;;-2.30;52.79;95460.22;5042472;28;20852;-58
2022/01/23 06:17:46;;;;;;;3.97;3.57;;;-1.90;70.40;;;-2.28;53.93;95463.59;5043210;28;20483;-57
2022/01/23 06:20:14;;;;;;;6.17;4.63;;;-1.90;71.20;;;-2.13;53.28;95469.19;5038416;28;20452;-57
2022/01/23 06:22:45;;;;;;;4.60;3.80;;;-1.70;71.50;;;-1.91;52.57;95467.56;5035387;28;20449;-57
2022/01/23 06:25:14;;;;;;;8.90;4.67;;;-1.60;71.00;;;-1.71;52.83;95464.34;5038383;28;20588;-57
2022/01/23 06:27:41;;;;;;;6.70;4.70;;;-1.40;70.60;;;-1.56;52.50;95463.00;5033884;28;20499;-57
2022/01/23 06:30:09;;;;;;;4.60;4.20;;;-1.30;69.80;;;-1.37;52.48;95465.78;5039153;28;20464;-57
2022/01/23 06:32:39;;;;;;;7.10;4.13;;;-1.10;69.90;;;-1.08;51.58;95469.09;5037197;28;20457;-58
2022/01/23 06:35:07;;;;;;;6.60;5.10;;;-0.80;69.30;;;-0.66;51.48;95475.34;5042211;28;20464;-56
2022/01/23 06:37:34;;;;;;;6.00;5.00;;;-0.50;69.20;;;-0.20;51.04;95458.06;5037850;28;21024;-58
2022/01/23 06:40:01;;;;;;;9.90;5.87;;;-0.10;68.50;;;0.30;50.33;95460.34;5041304;28;20440;-57
2022/01/23 06:42:29;;;;;;;5.87;5.03;;;0.40;68.80;;;0.87;49.78;95462.31;5040529;28;20456;-57
2022/01/23 06:44:57;;;;;;;12.93;4.63;;;0.90;67.80;;;1.45;48.81;95463.22;5039593;28;20445;-57
2022/01/23 06:47:25;;;;;;;5.37;4.80;;;1.40;66.30;;;1.98;49.79;95462.44;5046103;28;20542;-58
2022/01/23 06:49:54;;;;;;;4.80;4.23;;;2.00;65.70;;;2.44;47.48;95459.41;5035133;28;20463;-57
2022/01/23 06:52:21;;;;;;;6.97;5.97;;;2.50;63.10;;;2.85;45.63;95449.53;5036766;28;20453;-58
2022/01/23 06:54:48;;;;;;;9.53;6.00;;;3.00;61.10;;;3.28;44.67;95450.78;5038380;28;20980;-59
2022/01/23 06:57:16;;;;;;;7.60;6.43;;;3.50;59.30;;;3.63;45.14;95448.91;5037973;28;20492;-57
2022/01/23 06:59:43;;;;;;;9.83;6.33;;;3.80;58.30;;;4.04;45.05;95450.97;5042483;28;20449;-57
2022/01/23 07:02:11;;;;;;;6.93;6.10;;;4.30;58.10;;;4.55;44.42;95434.25;5039604;28;20473;-57
2022/01/23 07:04:38;;;;;;;6.47;5.53;;;4.80;57.00;;;5.03;43.71;95438.34;5040532;28;21009;-58
2022/01/23 07:07:07;;;;;;;9.23;5.67;;;5.30;56.30;;;5.49;42.97;95447.72;5040226;28;20480;-57
2022/01/23 07:09:35;;;;;;;8.40;6.30;;;5.70;55.30;;;5.87;42.28;95441.03;5039277;28;20459;-58
2022/01/23 07:12:02;;;;;;;7.17;5.77;;;6.20;54.10;;;6.23;41.69;95444.91;5038709;28;20526;-60
2022/01/23 07:14:29;;;;;;;8.43;6.40;;;6.50;53.20;;;6.63;41.52;95450.13;5035897;28;20455;-58
2022/01/23 07:16:57;;;;;;;6.23;5.63;;;6.90;53.20;;;7.01;40.98;95444.13;5039525;28;20673;-58
2022/01/23 07:19:25;;;;;;;9.20;6.27;;;7.30;51.30;;;7.25;40.26;95454.69;5042298;28;20452;-56
2022/01/23 07:21:52;;;;;;;5.93;5.23;;;7.70;50.70;;;7.44;40.65;95450.81;5037750;28;20468;-58
2022/01/23 07:24:21;;;;;;;7.53;5.90;;;7.90;51.00;;;7.46;39.08;95460.22;5036952;28;21020;-58
2022/01/23 07:26:48;;;;;;;10.60;6.00;;;8.00;48.90;;;7.08;39.29;95458.47;5038912;28;20511;-58
2022/01/23 07:29:17;;;;;;;7.63;6.30;;;7.70;48.10;;;6.49;39.98;95444.97;5038159;28;20952;-58
2022/01/23 07:31:56;;;;;;;7.20;6.20;;;7.20;47.80;;;5.88;39.69;95455.78;5035022;28;20499;-56
2022/01/23 07:34:24;;;;;;;8.30;6.43;;;6.50;47.90;;;5.18;40.31;95443.56;5035280;28;20484;-57
2022/01/23 07:36:51;;;;;;;8.33;6.67;;;5.80;48.00;;;4.54;39.80;95448.19;5036333;28;20469;-56
2022/01/23 07:39:20;;;;;;;14.17;7.87;;;5.10;47.60;;;3.95;41.96;95452.34;5032621;28;20900;-57
2022/01/23 07:41:47;;;;;;;9.47;7.27;;;4.50;50.10;;;3.49;42.30;95447.06;5037095;28;21067;-58
2022/01/23 07:44:14;;;;;;;11.30;7.70;;;4.00;50.70;;;3.07;42.38;95445.81;5036270;28;20534;-58
2022/01/23 07:46:42;;;;;;;9.83;7.10;;;3.50;51.20;;;2.73;43.67;95444.94;5034997;28;20906;-58
2022/01/23 07:49:10;;;;;;;8.13;7.33;;;3.20;52.70;;;2.48;44.83;95461.75;5038058;28;20460;-58
2022/01/23 07:51:37;;;;;;;13.23;7.60;;;2.90;53.20;;;2.27;44.80;95452.44;5039805;28;20475;-58
2022/01/23 07:54:04;;;;;;;9.60;6.70;;;2.70;54.60;;;2.15;44.63;95464.25;5036363;28;20463;-56
2022/01/23 07:56:33;;;;;;;10.00;6.77;;;2.50;54.60;;;2.02;45.08;95478.72;5035255;28;21017;-57
2022/01/23 07:59:01;;;;;;;7.37;6.50;;;2.40;55.30;;;1.89;45.33;95468.94;5032330;28;20610;-57
2022/01/23 08:01:30;;;;;;;10.97;8.40;;;2.20;55.50;;;1.81;45.17;95473.63;5038197;28;20476;-58
2022/01/23 08:03:57;;;;;;;11.70;9.17;;;2.10;55.70;;;1.76;45.38;95479.03;5032570;28;20514;-58
2022/01/23 08:06:31;;;;;;;13.87;6.40;;;2.10;55.90;;;1.70;45.68;95471.53;5025253;28;20473;-57
2022/01/23 08:08:59;;;;;;;11.63;7.70;;;2.00;56.00;;;1.60;45.53;95472.88;5035305;28;20460;-58
2022/01/23 08:11:26;;;;;;;9.00;5.80;;;1.90;56.20;;;1.53;45.81;95485.25;5033168;28;20483;-57
2022/01/23 08:13:55;;;;;;;8.87;5.47;;;1.80;56.00;;;1.43;45.71;95474.47;5035042;28;20528;-56
2022/01/23 08:16:22;;;;;;;6.27;5.40;;;1.80;56.20;;;1.34;45.53;95485.25;5035458;28;20469;-56
2022/01/23 08:18:49;;;;;;;5.03;4.40;;;1.70;56.30;;;1.24;46.28;95482.25;5037270;28;20492;-58
2022/01/23 08:21:16;;;;;;;6.93;4.93;;;1.60;56.60;;;1.24;46.26;95482.25;5035791;28;21028;-56
2022/01/23 08:23:44;;;;;;;6.40;4.27;;;1.60;57.00;;;1.25;46.57;95483.94;5035450;28;20984;-57
2022/01/23 08:26:11;;;;;;;6.90;4.67;;;1.60;56.60;;;1.27;45.62;95485.59;5035458;28;20471;-57
2022/01/23 08:28:38;;;;;;;6.13;5.00;;;1.60;56.90;;;1.27;46.58;95483.88;5040974;28;20455;-59
2022/01/23 08:31:07;;;;;;;8.73;5.10;;;1.60;57.60;;;1.34;46.72;95487.03;5033337;28;20550;-58
2022/01/23 08:33:34;;;;;;;7.67;4.67;;;1.60;57.10;;;1.42;45.40;95474.56;5032572;28;20452;-57
2022/01/23 08:36:02;;;;;;;5.77;4.90;;;1.70;57.10;;;1.40;46.27;95486.75;5031880;28;20469;-58
2022/01/23 08:38:29;;;;;;;8.60;5.47;;;1.70;56.60;;;1.38;46.46;95479.03;5032355;28;20493;-56
2022/01/23 08:43:41;;;;;;;8.30;5.70;;;1.70;56.70;;;1.38;45.85;95479.03;5034257;28;20450;-57
2022/01/23 08:46:09;;;;;;;8.63;4.83;;;1.70;56.60;;;1.34;45.05;95471.47;5032611;28;20471;-58
2022/01/23 08:48:37;;;;;;;6.30;4.73;;;1.70;56.60;;;1.28;45.92;95472.59;5037281;28;20443;-57
2022/01/23 08:51:04;;;;;;;5.93;4.63;;;1.60;56.60;;;1.24;45.94;95471.88;5031517;28;20763;-58
2022/01/23 08:53:31;;;;;;;5.03;4.53;;;1.60;57.10;;;1.24;46.05;95478.84;5026524;28;20460;-57
2022/01/23 08:55:59;;;;;;;8.20;4.67;;;1.50;56.90;;;1.22;45.46;95471.13;5030449;28;20861;-58
2022/01/23 08:58:27;;;;;;;9.87;7.10;;;1.50;56.50;;;1.15;47.46;95472.28;5031181;28;20498;-58
2022/01/23 09:00:54;;;;;;;5.43;4.93;;;1.50;58.00;;;1.11;46.75;95469.91;5029515;28;20464;-59
2022/01/23 09:03:23;;;;;;;6.60;5.37;;;1.40;57.50;;;1.10;46.66;95483.75;5028782;28;20882;-57
2022/01/23 09:05:50;;;;;;;14.73;6.30;;;1.40;57.20;;;1.06;46.08;95478.72;5032659;28;21618;-57
2022/01/23 09:08:19;;;;;;;14.67;6.83;;;1.40;57.50;;;1.05;47.14;95482.22;5031866;28;20475;-57
2022/01/23 09:10:54;;;;;;;6.17;4.93;;;1.40;57.90;;;1.03;46.78;95483.19;5032282;28;20518;-57
2022/01/23 09:13:39;;;;;;;6.30;5.30;;;1.40;58.20;;;0.99;46.59;95479.91;5034316;28;20476;-57
2022/01/23 09:16:07;;;;;;;8.40;4.90;;;1.30;57.40;;;0.95;47.08;95477.50;5038048;28;20472;-57
2022/01/23 09:18:36;;;;;;;5.43;4.80;;;1.30;57.60;;;0.91;46.89;95479.38;5037882;28;20496;-57
2022/01/23 09:21:04;;;;;;;6.47;5.03;;;1.20;57.80;;;0.83;47.07;95481.47;5037800;28;20476;-58
2022/01/23 09:23:31;;;;;;;9.40;4.83;;;1.20;57.70;;;0.72;46.50;95474.16;5032856;28;20582;-57
2022/01/23 09:26:01;;;;;;;6.23;4.77;;;1.10;57.60;;;0.68;46.15;95481.22;5037970;28;20965;-58
2022/01/23 09:28:32;;;;;;;7.73;4.30;;;1.00;57.80;;;0.64;46.72;95477.06;5036869;28;20452;-57
2022/01/23 09:30:59;;;;;;;5.53;4.87;;;1.00;57.90;;;0.62;46.38;95468.53;5038158;28;20483;-57
2022/01/23 09:33:27;;;;;;;4.80;4.40;;;0.90;57.90;;;0.64;46.53;95469.31;5036333;28;20948;-57
2022/01/23 09:35:55;;;;;;;5.30;4.63;;;1.00;57.90;;;0.65;46.98;95460.63;5040224;28;20480;-57
2022/01/23 09:38:23;;;;;;;7.37;4.40;;;1.00;58.00;;;0.70;46.47;95461.28;5038666;28;20484;-57
2022/01/23 09:40:59;;;;;;;12.80;6.17;;;1.00;58.20;;;0.73;47.42;95462.91;5045962;28;20897;-57
2022/01/23 09:43:27;;;;;;;17.37;8.27;;;1.10;58.20;;;0.73;46.57;95457.72;5039361;28;20440;-57
2022/01/23 09:45:55;;;;;;;10.67;5.90;;;1.10;58.00;;;0.73;47.26;95456.88;5044017;28;20480;-56
2022/01/23 09:48:22;;;;;;;6.20;4.13;;;1.10;58.40;;;0.73;46.79;95454.28;5041395;28;20539;-57
2022/01/23 09:50:51;;;;;;;7.70;4.47;;;1.10;58.30;;;0.69;46.50;95448.41;5043990;28;20981;-57
2022/01/23 09:53:21;;;;;;;6.60;5.00;;;1.00;57.40;;;0.64;46.79;95445.16;5036389;28;20484;-57
2022/01/23 09:55:49;;;;;;;5.10;4.03;;;1.00;58.00;;;0.63;46.00;95443.47;5035453;28;21006;-56
2022/01/23 09:58:16;;;;;;;6.10;3.60;;;0.90;57.40;;;0.60;46.80;95449.63;5039345;28;20687;-56
2022/01/23 10:00:44;;;;;;;5.60;3.97;;;0.90;57.40;;;0.53;46.90;95430.09;5038263;28;20468;-57
2022/01/23 10:03:11;;;;;;;6.00;3.40;;;0.90;57.20;;;0.40;46.20;95441.88;5039920;28;20459;-58
2022/01/23 10:05:39;;;;;;;6.10;4.27;;;0.80;57.70;;;0.36;46.85;95438.56;5034501;28;20479;-58
2022/01/23 10:08:06;;;;;;;4.37;3.97;;;0.70;57.60;;;0.35;46.68;95432.53;5037814;28;20807;-57
2022/01/23 10:10:39;;;;;;;5.03;4.53;;;0.70;57.90;;;0.39;47.23;95424.66;5034138;28;20472;-56
2022/01/23 10:13:07;;;;;;;5.77;4.40;;;0.70;58.10;;;0.38;46.55;95429.00;5036344;28;20453;-56
2022/01/23 10:15:34;;;;;;;6.83;4.83;;;0.70;57.90;;;0.40;47.08;95426.34;5038463;28;20551;-57
2022/01/23 10:18:01;;;;;;;15.60;10.33;;;0.80;58.10;;;0.41;55.74;95423.69;5041601;28;20453;-57
2022/01/23 10:20:29;;;;;;;8.90;5.53;;;0.70;72.00;;;0.60;50.07;95415.97;5029259;28;20486;-59
2022/01/23 10:22:58;;;;;;;7.97;4.93;;;0.80;66.70;;;0.69;48.34;95415.56;5033736;28;21080;-59
2022/01/23 10:25:28;;;;;;;8.13;5.33;;;1.00;62.30;;;0.73;47.38;95412.84;5039602;28;20464;-57
2022/01/23 10:28:03;;;;;;;5.07;4.13;;;1.00;60.60;;;0.73;46.51;95415.44;5037415;28;20458;-57
2022/01/23 10:30:32;;;;;;;10.73;4.23;;;1.00;59.10;;;0.71;46.92;95408.59;5038372;28;20538;-58
2022/01/23 10:33:08;;;;;;;4.60;3.87;;;1.00;59.50;;;0.74;46.41;95399.84;5037436;28;20448;-58
2022/01/23 10:35:36;;;;;;;4.57;4.13;;;1.10;58.70;;;0.75;47.00;95403.28;5035761;28;20547;-58
2022/01/23 10:38:12;;;;;;;5.53;3.67;;;1.10;58.80;;;0.75;47.11;95395.53;5041616;28;20456;-57
2022/01/23 10:40:48;;;;;;;4.57;4.07;;;1.10;58.70;;;0.73;46.24;95397.31;5036235;28;20463;-57
2022/01/23 10:48:48;;;;;;;4.93;3.00;;;1.10;58.50;;;0.76;46.44;95389.41;5039261;28;20824;-58
2022/01/23 10:51:28;;;;;;;4.60;4.17;;;1.10;58.50;;;0.69;46.38;95387.09;5040005;28;20554;-58
2022/01/23 10:54:15;;;;;;;6.00;3.50;;;1.10;58.10;;;0.66;46.15;95386.41;5037046;28;20840;-57
2022/01/23 10:57:05;;;;;;;7.13;3.87;;;1.00;58.10;;;0.68;46.54;95380.25;5034840;28;20475;-59
2022/01/23 10:59:45;;;;;;;4.40;4.00;;;1.00;58.30;;;0.68;46.58;95375.09;5035659;28;20477;-59
2022/01/23 11:02:14;;;;;;;10.60;3.63;;;1.00;57.80;;;0.64;46.06;95375.28;5036979;28;20472;-58
2022/01/23 11:05:00;;;;;;;3.60;3.40;;;1.00;57.60;;;0.63;46.70;95369.25;5040690;28;20544;-59
2022/01/23 11:07:28;;;;;;;5.20;3.40;;;1.00;57.90;;;0.68;46.36;95366.44;5037764;28;20825;-59
2022/01/23 11:10:01;;;;;;;6.60;3.20;;;1.00;57.90;;;0.68;45.84;95376.81;5036465;28;20471;-58
2022/01/23 11:18:05;;;;;;;6.07;4.00;;;1.00;57.70;;;0.64;46.53;95359.75;5033177;28;20522;-64
2022/01/23 11:20:35;;;;;;;7.03;3.97;;;1.00;58.30;;;0.68;52.00;95353.50;5033576;28;20468;-59
2022/01/23 11:23:14;;;;;;;4.07;3.40;;;1.00;67.90;;;0.71;47.02;95349.06;5037088;28;20727;-57
2022/01/23 11:25:42;;;;;;;5.20;3.13;;;1.00;60.90;;;0.64;47.92;95350.22;5035748;28;20464;-57
2022/01/23 11:28:10;;;;;;;3.73;3.40;;;1.00;60.20;;;0.62;49.33;95344.28;5037314;28;20465;-57
2022/01/23 11:30:42;;;;;;;4.87;3.83;;;0.90;61.50;;;0.67;47.80;95344.91;5037459;28;20862;-58
2022/01/23 11:33:11;;;;;;;6.97;3.50;;;1.00;60.80;;;0.64;47.06;95342.47;5032624;28;20907;-57
2022/01/23 11:35:38;;;;;;;3.97;3.67;;;0.90;59.50;;;0.65;47.42;95346.75;5038133;28;20498;-57
2022/01/23 11:38:11;;;;;;;3.20;2.90;;;0.90;59.40;;;0.64;46.73;95337.28;5037362;28;20882;-58
2022/01/23 11:50:36;;;;;;;4.80;3.93;;;1.00;58.70;;;0.59;46.57;95346.16;5037212;28;20495;-58
2022/01/23 11:54:37;;;;;;;8.43;3.37;;;0.80;58.80;;;0.44;47.25;95334.75;5036828;28;20478;-58
2022/01/23 11:57:05;;;;;;;3.57;3.27;;;0.80;58.70;;;0.44;47.46;95332.16;5034634;28;20557;-58
2022/01/23 11:59:35;;;;;;;3.80;3.03;;;0.80;58.90;;;0.41;47.23;95319.34;5036531;28;20483;-58
2022/01/23 12:02:27;;;;;;;8.17;3.30;;;0.80;58.60;;;0.31;46.77;95327.50;5038927;28;20476;-57
2022/01/23 12:05:31;;;;;;;3.23;3.03;;;0.70;58.60;;;0.28;47.84;95319.03;5035326;28;20536;-58
2022/01/23 12:08:39;;;;;;;7.43;3.50;;;0.70;58.90;;;0.23;47.75;95319.22;5037560;28;20463;-58
2022/01/23 12:17:40;;;;;;;7.90;3.00;;;0.50;59.30;;;0.10;47.88;95308.56;5037552;28;20454;-58
2022/01/23 12:20:08;;;;;;;3.30;2.90;;;0.50;59.40;;;0.06;47.98;95309.59;5037021;28;20537;-58
2022/01/23 12:22:53;;;;;;;4.57;3.30;;;0.40;59.50;;;0.02;47.68;95318.41;5041953;28;20456;-58
2022/01/23 12:25:31;;;;;;;3.63;2.70;;;0.40;59.40;;;-0.03;48.15;95323.78;5033086;28;20495;-57
2022/01/23 12:28:21;;;;;;;3.40;3.20;;;0.30;59.70;;;-0.06;48.13;95316.16;5036785;28;20437;-58
2022/01/23 12:30:51;;;;;;;5.37;3.67;;;0.30;60.00;;;-0.07;48.02;95323.97;5034609;28;21042;-58
2022/01/23 12:33:40;;;;;;;3.40;3.13;;;0.30;59.80;;;-0.10;48.01;95322.34;5034043;28;20464;-58
2022/01/23 12:36:08;;;;;;;5.10;3.70;;;0.30;59.90;;;-0.09;48.21;95333.56;5033422;28;20488;-57
2022/01/23 12:38:40;;;;;;;3.60;3.27;;;0.30;60.10;;;-0.17;48.21;95327.84;5036674;28;20559;-58
2022/01/23 12:41:23;;;;;;;8.30;3.70;;;0.20;59.80;;;-0.24;48.65;95332.44;5033399;28;20473;-58
2022/01/23 12:43:51;;;;;;;5.07;3.47;;;0.10;60.40;;;-0.26;48.35;95323.91;5036671;28;20983;-60
2022/01/23 12:46:34;;;;;;;3.50;2.90;;;0.10;60.70;;;-0.27;49.01;95317.88;5037702;28;20475;-58
2022/01/23 12:49:21;;;;;;;8.10;3.67;;;0.10;61.30;;;-0.26;48.54;95327.31;5042510;28;20489;-57
2022/01/23 12:51:49;;;;;;;3.43;2.93;;;0.10;60.90;;;-0.30;48.88;95319.75;5038033;28;20513;-57
2022/01/23 12:54:29;;;;;;;3.97;3.10;;;0.10;61.30;;;-0.30;49.29;95323.16;5035861;28;21018;-57
2022/01/23 12:56:56;;;;;;;6.53;3.20;;;0.10;62.20;;;-0.30;49.22;95333.50;5036060;28;20482;-58
2022/01/23 12:59:31;;;;;;;3.63;3.30;;;0.10;62.50;;;-0.28;49.19;95328.28;5037872;28;20499;-58